Time;durP1;ratioP1;P1;durP2;ratioP2;P2;SDS_P1;SDS_P2;PMS_P1;PMS_P2;Temp;Humidity;BMP_temperature;BMP_pressure;BME280_temperature;BME280_humidity;BME280_pressure;Samples;Min_cycle;Max_cycle;Signal;HPM_P1;HPM_P2
2022/09/21 00:01:25;;;;;;;7.35;2.88;;;;;;;14.15;100.00;99317.22;5030953;28;20056;-93
2022/09/21 00:03:57;;;;;;;8.27;3.00;;;;;;;14.18;100.00;99324.16;5028126;28;20049;-92
2022/09/21 00:06:27;;;;;;;9.55;3.03;;;;;;;14.20;100.00;99327.63;5028662;28;20039;-93
2022/09/21 00:08:56;;;;;;;8.43;2.97;;;;;;;13.90;100.00;99303.56;5020257;28;20072;-94
2022/09/21 00:11:25;;;;;;;9.23;3.00;;;;;;;14.00;100.00;99322.66;5023982;28;20021;-94
2022/09/21 00:13:58;;;;;;;7.82;3.10;;;;;;;14.13;100.00;99329.47;5027651;28;20035;-93
2022/09/21 00:16:24;;;;;;;9.10;3.20;;;;;;;14.16;100.00;99323.31;5026967;28;20112;-93
2022/09/21 00:18:53;;;;;;;7.45;2.78;;;;;;;14.11;100.00;99323.41;5045172;28;20068;-94
2022/09/21 00:21:19;;;;;;;9.57;3.00;;;;;;;14.15;100.00;99318.94;5048429;28;20068;-95
2022/09/21 00:23:45;;;;;;;7.35;2.60;;;;;;;14.16;100.00;99320.69;5033280;28;20033;-93
2022/09/21 00:26:22;;;;;;;8.38;2.70;;;;;;;14.30;100.00;99333.59;5047066;28;20028;-95
2022/09/21 00:28:52;;;;;;;9.05;2.97;;;;;;;14.21;100.00;99323.25;5050441;28;20021;-95
2022/09/21 00:31:18;;;;;;;7.40;2.60;;;;;;;14.04;100.00;99326.13;5047460;28;20044;-93
2022/09/21 00:33:44;;;;;;;7.90;2.45;;;;;;;14.03;100.00;99314.75;5043682;28;20512;-95
2022/09/21 00:36:18;;;;;;;7.72;2.75;;;;;;;14.23;100.00;99326.72;5030966;28;20029;-94
2022/09/21 00:38:49;;;;;;;9.68;3.00;;;;;;;14.26;100.00;99324.03;5030538;28;20028;-93
2022/09/21 00:41:15;;;;;;;8.82;2.60;;;;;;;14.24;100.00;99331.94;5031068;28;20052;-93
2022/09/21 00:44:08;;;;;;;7.72;2.60;;;;;;;14.27;100.00;99331.03;5031166;28;20079;-95
2022/09/21 00:46:38;;;;;;;8.63;2.63;;;;;;;14.36;100.00;99337.88;5035247;28;20022;-94
2022/09/21 00:49:04;;;;;;;7.38;2.67;;;;;;;14.17;100.00;99325.06;5045380;28;20025;-93
2022/09/21 00:51:30;;;;;;;8.00;2.70;;;;;;;14.25;100.00;99331.06;5044614;28;20055;-94
2022/09/21 00:54:03;;;;;;;8.65;2.63;;;;;;;14.13;100.00;99315.50;5050669;28;20084;-93
2022/09/21 00:56:32;;;;;;;8.13;2.70;;;;;;;14.18;100.00;99332.00;5034925;28;20021;-94
2022/09/21 00:58:58;;;;;;;7.90;2.67;;;;;;;14.28;100.00;99322.25;5033627;28;20060;-93
2022/09/21 01:01:28;;;;;;;8.93;2.63;;;;;;;14.19;100.00;99328.50;5029180;28;20442;-93
2022/09/21 01:03:56;;;;;;;6.50;2.22;;;;;;;14.23;100.00;99318.84;5022766;28;20082;-94
2022/09/21 01:06:22;;;;;;;7.70;2.67;;;;;;;14.18;100.00;99318.91;5047702;28;20029;-94
2022/09/21 01:08:51;;;;;;;8.45;2.60;;;;;;;14.21;100.00;99315.38;5026884;28;20029;-95
2022/09/21 01:11:38;;;;;;;8.93;2.75;;;;;;;14.27;100.00;99324.03;5030912;28;20044;-94
2022/09/21 01:14:08;;;;;;;9.48;2.60;;;;;;;14.15;100.00;99319.84;5027101;28;20029;-93
2022/09/21 01:17:02;;;;;;;9.65;2.60;;;;;;;14.20;100.00;99317.13;5029305;28;20021;-94
2022/09/21 01:20:00;;;;;;;7.82;2.30;;;;;;;14.16;100.00;99324.16;5022779;28;20040;-93
2022/09/21 01:22:37;;;;;;;8.05;2.92;;;;;;;14.07;100.00;99318.19;5044409;28;20053;-93
2022/09/21 01:25:31;;;;;;;9.40;2.40;;;;;;;14.23;100.00;99324.94;5025135;28;20036;-93
2022/09/21 01:28:28;;;;;;;9.18;2.40;;;;;;;14.17;100.00;99317.19;5022724;28;20032;-94
2022/09/21 01:30:58;;;;;;;8.20;2.42;;;;;;;13.99;100.00;99311.31;5000463;28;20056;-92
2022/09/21 01:33:29;;;;;;;8.10;2.85;;;;;;;14.00;100.00;99302.56;5023483;28;20031;-92
2022/09/21 01:36:09;;;;;;;7.78;2.35;;;;;;;14.06;100.00;99311.25;5034102;28;20028;-92
2022/09/21 01:38:40;;;;;;;7.50;2.80;;;;;;;14.03;100.00;99306.91;5039422;28;20064;-93
2022/09/21 01:41:10;;;;;;;9.10;2.92;;;;;;;13.80;100.00;99296.72;5025404;28;20115;-94
2022/09/21 01:43:44;;;;;;;8.60;2.88;;;;;;;13.98;100.00;99304.31;5040500;28;20029;-93
2022/09/21 01:46:17;;;;;;;9.10;3.03;;;;;;;13.83;100.00;99294.94;5039325;28;20025;-93
2022/09/21 01:48:47;;;;;;;8.45;3.10;;;;;;;13.88;100.00;99289.63;5023538;28;20042;-93
2022/09/21 01:51:17;;;;;;;8.50;3.10;;;;;;;13.90;100.00;99292.22;5021722;28;20044;-94
2022/09/21 01:54:06;;;;;;;10.07;2.92;;;;;;;13.88;100.00;99283.53;5024255;28;20033;-93
2022/09/21 01:56:38;;;;;;;7.45;3.00;;;;;;;13.77;100.00;99275.78;5015766;28;20021;-91
2022/09/21 01:59:21;;;;;;;9.07;3.20;;;;;;;13.62;100.00;99285.56;5014583;28;20032;-93
2022/09/21 02:01:55;;;;;;;8.15;2.90;;;;;;;13.64;100.00;99286.44;5025006;23;20149;-91
2022/09/21 02:04:20;;;;;;;9.77;3.20;;;;;;;13.59;100.00;99280.38;5012688;28;20034;-92
2022/09/21 02:06:48;;;;;;;7.55;2.60;;;;;;;13.73;100.00;99274.09;5020616;28;20079;-92
2022/09/21 02:09:13;;;;;;;7.88;2.88;;;;;;;13.72;100.00;99275.84;5024988;28;20041;-92
2022/09/21 02:11:43;;;;;;;10.02;3.38;;;;;;;13.65;100.00;99275.06;5043739;28;20025;-92
2022/09/21 02:14:12;;;;;;;7.53;2.72;;;;;;;13.44;100.00;99278.84;5024566;28;20029;-92
2022/09/21 02:16:40;;;;;;;8.88;3.05;;;;;;;13.45;100.00;99279.69;5044354;28;20041;-92
2022/09/21 02:19:24;;;;;;;9.95;3.63;;;;;;;13.25;100.00;99272.91;5045948;28;20055;-91
2022/09/21 02:22:08;;;;;;;10.73;3.47;;;;;;;13.33;100.00;99272.81;5047802;28;20124;-94
2022/09/21 02:24:46;;;;;;;12.20;2.80;;;;;;;13.24;100.00;99270.31;5040966;28;20029;-93
2022/09/21 02:27:26;;;;;;;8.65;3.10;;;;;;;13.35;100.00;99267.53;5029749;28;20052;-92
2022/09/21 02:30:00;;;;;;;8.52;2.90;;;;;;;13.26;100.00;99266.81;5023409;28;20029;-91
2022/09/21 02:32:25;;;;;;;8.45;3.13;;;;;;;13.28;100.00;99275.50;5023377;28;20045;-91
2022/09/21 02:35:29;;;;;;;8.13;2.97;;;;;;;13.30;100.00;99265.88;5042160;28;20060;-92
2022/09/21 02:38:26;;;;;;;9.23;3.20;;;;;;;13.29;100.00;99265.88;5029037;28;20515;-91
2022/09/21 02:40:56;;;;;;;8.07;3.08;;;;;;;13.37;100.00;99269.28;5032172;28;20082;-92
2022/09/21 02:43:39;;;;;;;8.98;3.28;;;;;;;13.23;100.00;99263.34;5040929;28;20601;-93
2022/09/21 02:46:27;;;;;;;10.63;3.30;;;;;;;13.19;100.00;99262.50;5036920;28;20040;-92
2022/09/21 02:49:01;;;;;;;10.18;3.25;;;;;;;13.32;100.00;99264.09;5043516;28;20164;-92
2022/09/21 02:51:31;;;;;;;10.43;3.17;;;;;;;13.21;100.00;99262.47;5037950;28;20034;-92
2022/09/21 02:54:01;;;;;;;8.90;3.25;;;;;;;13.09;100.00;99256.50;5025658;28;20035;-92
2022/09/21 02:56:29;;;;;;;9.65;3.63;;;;;;;13.17;100.00;99255.56;5026749;28;20633;-93
2022/09/21 02:59:00;;;;;;;11.02;4.10;;;;;;;13.27;100.00;99246.69;5025338;28;20040;-92
2022/09/21 03:01:27;;;;;;;10.55;4.03;;;;;;;13.34;100.00;99244.88;5039422;28;20052;-93
2022/09/21 03:03:52;;;;;;;9.43;4.10;;;;;;;13.33;100.00;99246.63;5026281;28;20083;-92
2022/09/21 03:06:18;;;;;;;12.52;4.38;;;;;;;13.40;100.00;99245.72;5044389;28;20029;-93
2022/09/21 03:08:43;;;;;;;14.35;4.50;;;;;;;13.37;100.00;99234.38;5021326;28;20556;-92
2022/09/21 03:11:10;;;;;;;11.20;4.55;;;;;;;13.29;100.00;99244.91;5026369;28;20059;-92
2022/09/21 03:13:36;;;;;;;11.15;4.18;;;;;;;13.39;100.00;99240.47;5020483;28;20063;-93
2022/09/21 03:16:06;;;;;;;12.98;4.70;;;;;;;13.18;100.00;99234.59;5025061;28;20033;-92
2022/09/21 03:18:32;;;;;;;13.13;4.85;;;;;;;13.28;100.00;99236.19;5023379;28;20524;-91
2022/09/21 03:20:57;;;;;;;11.50;4.63;;;;;;;13.17;100.00;99238.09;5025499;28;20039;-92
2022/09/21 03:23:23;;;;;;;11.68;5.18;;;;;;;12.92;100.00;99232.28;5046929;28;20035;-92
2022/09/21 03:25:51;;;;;;;12.88;5.68;;;;;;;12.92;100.00;99222.66;5043564;28;20107;-92
2022/09/21 03:28:18;;;;;;;13.10;5.50;;;;;;;13.11;100.00;99239.03;5033125;28;20040;-92
2022/09/21 03:30:43;;;;;;;11.27;5.05;;;;;;;13.12;100.00;99234.66;5039465;28;20024;-92
2022/09/21 03:33:10;;;;;;;13.15;6.25;;;;;;;13.09;100.00;99234.69;5020558;28;20032;-92
2022/09/21 03:35:35;;;;;;;12.80;5.68;;;;;;;13.12;100.00;99230.28;5044524;28;20166;-92
2022/09/21 03:38:01;;;;;;;17.15;5.75;;;;;;;13.19;100.00;99231.06;5024263;28;20360;-92
2022/09/21 03:40:27;;;;;;;12.35;5.47;;;;;;;13.15;100.00;99232.88;5018497;28;20472;-93
2022/09/21 03:42:53;;;;;;;14.05;5.75;;;;;;;13.08;100.00;99232.94;5021857;28;20033;-91
2022/09/21 03:45:26;;;;;;;14.27;5.93;;;;;;;13.13;100.00;99225.91;5043163;28;20087;-91
2022/09/21 03:47:55;;;;;;;12.05;5.28;;;;;;;13.21;100.00;99228.41;5027642;28;20029;-91
2022/09/21 03:50:21;;;;;;;16.25;6.38;;;;;;;13.14;100.00;99218.03;5020332;28;20087;-91
2022/09/21 03:52:46;;;;;;;13.85;6.18;;;;;;;13.13;100.00;99224.16;5023372;28;20033;-92
2022/09/21 03:55:11;;;;;;;14.57;6.13;;;;;;;13.21;100.00;99220.56;5053041;28;20267;-91
2022/09/21 03:57:38;;;;;;;12.90;6.05;;;;;;;13.21;100.00;99218.84;5045885;28;20044;-91
2022/09/21 04:00:08;;;;;;;13.50;5.70;;;;;;;13.17;100.00;99224.13;5037760;28;20041;-89
2022/09/21 04:02:34;;;;;;;13.88;6.18;;;;;;;13.09;100.00;99205.88;5019017;28;20045;-92
2022/09/21 04:05:00;;;;;;;12.90;5.90;;;;;;;13.08;100.00;99212.88;5035118;28;20033;-91
2022/09/21 04:07:30;;;;;;;14.02;5.97;;;;;;;13.06;100.00;99213.78;5045800;28;20049;-92
2022/09/21 04:09:55;;;;;;;15.70;6.80;;;;;;;13.14;100.00;99209.31;5037976;28;20040;-92
2022/09/21 04:12:21;;;;;;;14.13;6.75;;;;;;;13.13;100.00;99215.44;5027544;28;20028;-91
2022/09/21 04:14:48;;;;;;;15.13;6.53;;;;;;;13.36;100.00;99198.59;5043772;28;20063;-93
2022/09/21 04:17:14;;;;;;;15.32;6.40;;;;;;;13.49;100.00;99210.66;5023766;28;20551;-92
2022/09/21 04:19:39;;;;;;;14.73;6.57;;;;;;;13.41;100.00;99205.50;5038099;28;20036;-92
2022/09/21 04:22:05;;;;;;;13.57;6.35;;;;;;;13.43;100.00;99208.09;5016774;28;21546;-92
2022/09/21 04:24:30;;;;;;;17.55;7.03;;;;;;;13.30;100.00;99199.50;5020226;28;20460;-92
2022/09/21 04:26:55;;;;;;;14.98;6.10;;;;;;;13.48;100.00;99201.03;5028051;28;20033;-91
2022/09/21 04:29:21;;;;;;;15.55;7.32;;;;;;;13.28;100.00;99199.53;5028592;28;20035;-92
2022/09/21 04:31:46;;;;;;;15.00;6.65;;;;;;;13.29;100.00;99197.75;5027815;28;20060;-92
2022/09/21 04:34:13;;;;;;;17.70;7.53;;;;;;;13.27;100.00;99195.16;5040505;28;20032;-91
2022/09/21 04:36:38;;;;;;;14.45;6.68;;;;;;;13.31;100.00;99196.00;5042909;28;20108;-91
2022/09/21 04:39:05;;;;;;;16.33;7.50;;;;;;;13.13;100.00;99205.81;5039040;28;20119;-91
2022/09/21 04:41:30;;;;;;;15.68;7.05;;;;;;;13.05;100.00;99198.94;5038060;28;20028;-91
2022/09/21 04:43:56;;;;;;;18.13;7.25;;;;;;;13.09;100.00;99209.34;5022672;28;20032;-91
2022/09/21 04:46:21;;;;;;;16.23;7.38;;;;;;;13.20;100.00;99211.84;5021238;28;20028;-93
2022/09/21 04:48:47;;;;;;;15.93;7.63;;;;;;;13.05;100.00;99212.91;5045566;28;20036;-93
2022/09/21 04:51:16;;;;;;;15.80;7.68;;;;;;;13.11;100.00;99209.34;5025898;28;20040;-91
2022/09/21 04:53:43;;;;;;;15.50;7.60;;;;;;;13.11;100.00;99204.09;5038525;28;20447;-92
2022/09/21 04:56:11;;;;;;;17.58;7.68;;;;;;;13.28;100.00;99199.53;5032377;28;20112;-90
2022/09/21 04:58:40;;;;;;;18.85;7.93;;;;;;;13.29;100.00;99195.16;5042117;28;20026;-91
2022/09/21 05:01:06;;;;;;;16.58;8.15;;;;;;;13.20;100.00;99196.13;5031007;28;20048;-91
2022/09/21 05:03:32;;;;;;;17.48;8.38;;;;;;;13.26;100.00;99201.31;5022553;28;20029;-92
2022/09/21 05:05:59;;;;;;;16.23;8.23;;;;;;;13.32;100.00;99201.22;5027447;28;20040;-92
2022/09/21 05:11:14;;;;;;;17.45;8.15;;;;;;;13.44;100.00;99197.63;5044146;28;20103;-93
2022/09/21 05:13:41;;;;;;;15.93;7.57;;;;;;;13.34;100.00;99198.59;5025153;28;20025;-91
2022/09/21 05:16:08;;;;;;;16.27;7.53;;;;;;;13.30;100.00;99195.16;5045313;28;20159;-93
2022/09/21 05:18:34;;;;;;;17.60;7.55;;;;;;;13.35;100.00;99200.34;5028857;28;20025;-92
2022/09/21 05:21:02;;;;;;;17.58;7.80;;;;;;;13.26;100.00;99198.69;5041521;28;20033;-93
2022/09/21 05:23:29;;;;;;;17.05;8.40;;;;;;;13.00;100.00;99192.91;5044182;28;20340;-93
2022/09/21 05:25:55;;;;;;;16.58;8.68;;;;;;;13.11;100.00;99185.78;5022889;28;20037;-92
2022/09/21 05:28:21;;;;;;;16.83;7.65;;;;;;;13.16;100.00;99186.59;5027638;28;20033;-92
2022/09/21 05:30:56;;;;;;;18.60;8.20;;;;;;;13.23;100.00;99188.22;5040886;28;20029;-92
2022/09/21 05:33:25;;;;;;;20.20;8.68;;;;;;;13.22;100.00;99189.16;5027842;28;20115;-92
2022/09/21 05:36:30;;;;;;;16.13;8.60;;;;;;;13.29;100.00;99203.00;5024957;28;20040;-93
2022/09/21 05:38:55;;;;;;;21.67;8.63;;;;;;;13.25;100.00;99196.06;5014928;28;20566;-90
2022/09/21 05:41:21;;;;;;;17.00;8.60;;;;;;;13.16;100.00;99191.81;5026993;28;20028;-91
2022/09/21 05:43:47;;;;;;;17.05;8.40;;;;;;;13.34;100.00;99202.97;5044524;28;20029;-91
2022/09/21 05:46:38;;;;;;;17.25;8.68;;;;;;;13.28;100.00;99194.28;5023941;28;20036;-92
2022/09/21 05:49:22;;;;;;;16.73;8.43;;;;;;;13.14;100.00;99211.94;5038991;28;20435;-92
2022/09/21 05:52:05;;;;;;;99.75;11.68;;;;;;;13.17;100.00;99211.03;5026998;28;20021;-92
2022/09/21 05:54:58;;;;;;;818.75;111.25;;;;;;;13.14;100.00;99204.09;5042399;28;20823;-93
2022/09/21 05:57:43;;;;;;;22.77;8.57;;;;;;;13.18;100.00;99212.75;4992860;28;20047;-92
2022/09/21 06:00:18;;;;;;;18.13;7.20;;;;;;;13.10;100.00;99210.25;5021732;28;20068;-92
2022/09/21 06:02:54;;;;;;;22.25;9.20;;;;;;;13.06;100.00;99214.63;5024724;28;20144;-92
2022/09/21 06:05:20;;;;;;;22.10;9.98;;;;;;;13.13;100.00;99210.19;5027373;28;20051;-91
2022/09/21 06:07:45;;;;;;;20.85;10.07;;;;;;;13.18;100.00;99213.66;5023074;28;20548;-93
2022/09/21 06:10:12;;;;;;;23.23;10.95;;;;;;;13.08;100.00;99205.03;5035925;28;20044;-94
2022/09/21 06:12:38;;;;;;;20.58;10.48;;;;;;;13.09;100.00;99214.59;5045989;28;20029;-92
2022/09/21 06:15:05;;;;;;;24.23;11.38;;;;;;;12.98;100.00;99211.25;5019853;28;20029;-93
2022/09/21 06:17:32;;;;;;;26.40;11.75;;;;;;;13.05;100.00;99212.91;5039227;28;20061;-93
2022/09/21 06:19:57;;;;;;;26.00;11.85;;;;;;;12.88;100.00;99205.25;5028581;28;20049;-92
2022/09/21 06:22:23;;;;;;;27.27;12.73;;;;;;;13.03;100.00;99208.59;5057852;28;20460;-92
2022/09/21 06:24:49;;;;;;;28.02;13.00;;;;;;;12.84;100.00;99210.53;5031694;28;20021;-95
2022/09/21 06:27:15;;;;;;;28.13;16.42;;;;;;;12.82;100.00;99202.72;5036831;28;20187;-94
2022/09/21 06:29:40;;;;;;;356.60;214.07;;;;;;;12.92;100.00;99199.09;5024948;28;20064;-94
2022/09/21 06:32:06;;;;;;;108.65;32.70;;;;;;;13.05;100.00;99204.19;5017434;28;20037;-95
2022/09/21 06:34:31;;;;;;;34.90;16.77;;;;;;;13.01;100.00;99210.34;5023921;28;20033;-93
2022/09/21 06:36:57;;;;;;;69.03;60.90;;;;;;;12.86;100.00;99204.41;5027159;28;20085;-94
2022/09/21 06:39:22;;;;;;;28.63;13.15;;;;;;;12.80;100.00;99207.97;5022813;28;20059;-92
2022/09/21 06:41:48;;;;;;;1504.95;751.90;;;;;;;12.85;100.00;99209.66;5018451;28;20123;-91
2022/09/21 06:44:13;;;;;;;93.22;33.80;;;;;;;12.83;100.00;99193.09;5019939;28;20032;-92
2022/09/21 06:46:39;;;;;;;26.55;14.07;;;;;;;12.90;100.00;99192.13;5017923;28;20021;-92
2022/09/21 06:49:04;;;;;;;744.72;344.13;;;;;;;12.81;100.00;99193.97;5037854;28;20037;-91
2022/09/21 06:51:30;;;;;;;1999.90;999.90;;;;;;;12.69;100.00;99193.25;5020601;28;20021;-92
2022/09/21 06:53:57;;;;;;;66.43;61.63;;;;;;;12.80;100.00;99186.13;5023430;28;20021;-92
2022/09/21 06:56:23;;;;;;;1999.90;999.90;;;;;;;12.65;100.00;99192.44;5036782;28;20344;-93
2022/09/21 06:58:49;;;;;;;1999.90;999.90;;;;;;;12.64;100.00;99188.94;5024678;28;20323;-92
2022/09/21 07:01:15;;;;;;;1999.90;999.90;;;;;;;12.79;100.00;99190.53;5040700;28;20515;-92
2022/09/21 07:03:42;;;;;;;625.38;68.80;;;;;;;12.81;100.00;99191.34;5036210;28;20044;-92
2022/09/21 07:06:14;;;;;;;265.60;129.35;;;;;;;12.90;100.00;99181.66;5037227;28;20033;-91
2022/09/21 07:08:41;;;;;;;1999.90;999.90;;;;;;;13.02;100.00;99189.38;5036063;28;20435;-91
2022/09/21 07:11:06;;;;;;;27.77;13.45;;;;;;;12.97;100.00;99181.59;5019226;28;20877;-91
2022/09/21 07:13:32;;;;;;;32.42;15.60;;;;;;;13.06;100.00;99187.59;5018503;28;20033;-91
2022/09/21 07:16:01;;;;;;;32.85;16.20;;;;;;;13.10;100.00;99174.44;5048091;28;20052;-92
2022/09/21 07:18:27;;;;;;;30.38;15.77;;;;;;;13.29;100.00;99177.69;5028316;28;20025;-92
2022/09/21 07:20:53;;;;;;;33.72;16.92;;;;;;;13.24;100.00;99169.03;5038845;28;20739;-91
2022/09/21 07:23:22;;;;;;;34.05;16.35;;;;;;;13.34;100.00;99174.16;5021523;28;20025;-91
2022/09/21 07:25:49;;;;;;;32.92;17.13;;;;;;;13.30;100.00;99168.97;5045611;28;20029;-92
2022/09/21 07:28:15;;;;;;;33.58;16.83;;;;;;;13.35;100.00;99178.47;5022912;28;20025;-91
2022/09/21 07:30:40;;;;;;;35.53;16.25;;;;;;;13.31;100.00;99168.06;5011051;28;20033;-91
2022/09/21 07:33:06;;;;;;;35.80;16.00;;;;;;;13.39;100.00;99175.84;5026551;28;20033;-91
2022/09/21 07:35:32;;;;;;;37.67;17.17;;;;;;;13.38;100.00;99183.75;5015331;28;20037;-91
2022/09/21 07:38:02;;;;;;;33.33;16.02;;;;;;;13.47;100.00;99178.34;5031035;28;20044;-92
2022/09/21 07:40:28;;;;;;;63.35;57.88;;;;;;;13.28;100.00;99175.09;5020646;28;21511;-90
2022/09/21 07:42:58;;;;;;;38.47;20.08;;;;;;;13.37;100.00;99172.38;5044278;28;20030;-91
2022/09/21 07:45:25;;;;;;;38.70;19.30;;;;;;;13.43;100.00;99179.28;5021910;28;20110;-91
2022/09/21 07:47:53;;;;;;;30.30;17.20;;;;;;;13.55;100.00;99173.88;5018666;28;20025;-91
2022/09/21 07:50:20;;;;;;;30.35;16.60;;;;;;;13.44;100.00;99171.44;5023317;28;20087;-92
2022/09/21 07:52:46;;;;;;;29.65;16.10;;;;;;;13.51;100.00;99173.94;5021809;28;20025;-92
2022/09/21 07:55:13;;;;;;;32.70;17.67;;;;;;;13.58;100.00;99176.44;5020074;28;20021;-93
2022/09/21 08:00:23;;;;;;;27.77;15.48;;;;;;;13.67;100.00;99164.97;5050899;28;20102;-96
2022/09/21 08:02:52;;;;;;;29.15;15.55;;;;;;;13.86;100.00;99180.41;5026534;28;20053;-96
2022/09/21 08:05:18;;;;;;;32.45;14.95;;;;;;;14.01;100.00;99174.91;5015218;28;20037;-96
2022/09/21 08:07:44;;;;;;;29.17;14.93;;;;;;;14.04;100.00;99169.63;5016482;28;20079;-95
2022/09/21 08:10:12;;;;;;;24.60;13.50;;;;;;;14.05;100.00;99166.09;5030673;28;20021;-94
2022/09/21 08:12:43;;;;;;;25.23;12.57;;;;;;;14.07;100.00;99172.22;5013196;28;20025;-95
2022/09/21 08:15:10;;;;;;;21.85;12.25;;;;;;;14.24;100.00;99179.78;5016097;28;20029;-94
2022/09/21 08:18:09;;;;;;;20.70;11.85;;;;;;;14.47;100.00;99187.25;5025119;28;20026;-95
2022/09/21 08:20:36;;;;;;;22.42;11.10;;;;;;;14.50;100.00;99179.31;5028530;28;20029;-94
2022/09/21 08:23:12;;;;;;;20.27;12.57;;;;;;;14.40;100.00;99185.63;5036389;28;20048;-94
2022/09/21 08:25:45;;;;;;;19.73;11.07;;;;;;;14.49;100.00;99190.72;5030718;28;20125;-95
2022/09/21 08:28:10;;;;;;;;;;;;;;;14.59;100.00;99201.91;5042873;28;20022;-96
2022/09/21 08:30:49;;;;;;;27.80;25.38;;;;;;;14.83;100.00;99199.75;5028902;28;19956;-95
2022/09/21 08:33:56;;;;;;;19.88;14.95;;;;;;;14.94;100.00;99205.66;5030643;28;20057;-96
2022/09/21 08:36:22;;;;;;;20.67;13.93;;;;;;;14.94;100.00;99192.50;5051561;28;20090;-96
2022/09/21 08:38:56;;;;;;;1501.55;750.97;;;;;;;15.20;100.00;99201.66;5035524;28;20077;-95
2022/09/21 08:41:34;;;;;;;111.03;49.55;;;;;;;14.82;100.00;99208.50;5033133;28;20021;-95
2022/09/21 08:49:34;;;;;;;37.75;35.03;;;;;;;14.71;100.00;99215.72;5034090;28;20040;-93
2022/09/21 08:52:04;;;;;;;27.75;25.58;;;;;;;14.28;100.00;99207.69;5040765;28;20040;-94
2022/09/21 08:55:30;;;;;;;13.75;7.97;;;;;;;14.61;100.00;99209.75;5043013;28;20060;-91
2022/09/21 08:57:57;;;;;;;12.95;6.93;;;;;;;14.55;100.00;99213.34;4986965;28;20045;-92
2022/09/21 09:00:24;;;;;;;18.73;12.00;;;;;;;14.71;100.00;99210.47;4984711;28;20032;-92
2022/09/21 09:03:43;;;;;;;21.15;15.07;;;;;;;14.85;100.00;99206.69;4985632;28;20054;-91
2022/09/21 09:06:47;;;;;;;17.20;14.73;;;;;;;14.81;100.00;99212.06;4941608;28;20043;-93
2022/09/21 09:09:22;;;;;;;16.63;6.75;;;;;;;15.02;100.00;99214.25;4945646;28;20058;-91
2022/09/21 09:12:07;;;;;;;17.63;6.95;;;;;;;14.97;100.00;99213.47;4929633;28;20047;-93
2022/09/21 09:14:38;;;;;;;14.02;6.65;;;;;;;14.84;100.00;99219.88;4940135;28;20208;-93
2022/09/21 09:17:22;;;;;;;15.80;6.07;;;;;;;15.15;100.00;99220.09;4941132;28;20043;-94
2022/09/21 09:20:08;;;;;;;13.55;5.40;;;;;;;15.04;100.00;99218.63;4940581;28;20030;-94
2022/09/21 09:22:47;;;;;;;12.35;5.25;;;;;;;15.42;100.00;99220.47;4940127;28;21267;-94
2022/09/21 09:25:33;;;;;;;11.73;4.70;;;;;;;15.07;100.00;99214.13;4954936;28;20039;-94
2022/09/21 09:28:17;;;;;;;10.68;4.35;;;;;;;15.32;100.00;99221.53;4970729;28;20038;-93
2022/09/21 09:31:01;;;;;;;10.07;4.72;;;;;;;14.95;100.00;99211.78;4961401;28;20042;-94
2022/09/21 09:33:54;;;;;;;9.85;4.15;;;;;;;15.16;100.00;99221.00;4981250;28;20041;-93
2022/09/21 09:39:19;;;;;;;8.65;3.20;;;;;;;15.26;100.00;99225.16;4977567;28;20037;-92
2022/09/21 09:42:06;;;;;;;12.43;5.72;;;;;;;15.32;100.00;99232.03;4964883;28;20049;-92
2022/09/21 09:44:56;;;;;;;19.45;13.00;;;;;;;15.30;100.00;99229.44;5001695;28;20042;-92
2022/09/21 09:48:19;;;;;;;1999.90;999.90;;;;;;;15.89;100.00;99230.81;5004025;28;20133;-94
2022/09/21 09:50:48;;;;;;;80.28;75.53;;;;;;;15.94;100.00;99228.97;4987155;28;20217;-94
2022/09/21 09:53:23;;;;;;;103.43;94.70;;;;;;;15.93;100.00;99227.22;4983298;28;20045;-92
2022/09/21 09:56:03;;;;;;;108.00;98.53;;;;;;;17.16;100.00;99225.88;4984744;28;20527;-92
2022/09/21 09:59:07;;;;;;;11.85;6.32;;;;;;;17.72;100.00;99235.63;5001995;28;20045;-94
2022/09/21 10:01:48;;;;;;;11.85;5.82;;;;;;;18.52;100.00;99234.00;5000923;28;20162;-93
2022/09/21 10:04:16;;;;;;;12.32;4.60;;;;;;;17.40;100.00;99240.09;4978544;28;20042;-94
2022/09/21 10:06:43;;;;;;;10.13;4.63;;;;;;;16.87;100.00;99235.41;4988108;28;20080;-94
2022/09/21 10:09:30;;;;;;;11.32;4.68;;;;;;;16.53;100.00;99245.94;4979716;28;20042;-93
2022/09/21 10:12:02;;;;;;;9.15;4.10;;;;;;;16.51;100.00;99237.25;5002000;28;20097;-92
2022/09/21 10:17:36;;;;;;;9.23;4.20;;;;;;;16.62;100.00;99234.31;5025008;28;20597;-94
2022/09/21 10:20:42;;;;;;;9.60;4.18;;;;;;;17.23;100.00;99230.03;5045592;28;20166;-92
2022/09/21 10:26:51;;;;;;;9.95;3.75;;;;;;;17.78;100.00;99225.81;5073389;22;20055;-96
2022/09/21 10:29:29;;;;;;;7.80;3.55;;;;;;;17.48;100.00;99231.97;5073181;28;20064;-95
2022/09/21 10:32:12;;;;;;;4.10;2.17;;;;;;;17.78;100.00;99231.09;5082052;28;20042;-96
2022/09/21 10:35:21;;;;;;;5.05;2.90;;;;;;;17.78;100.00;99228.44;5087317;28;20050;-91
2022/09/21 10:38:16;;;;;;;4.90;2.60;;;;;;;18.08;100.00;99227.50;5081382;28;20037;-94
2022/09/21 10:41:19;;;;;;;;;;;;;;;;;;;;;
2022/09/21 10:43:59;;;;;;;1.15;0.80;;;;;;;17.00;100.00;99228.03;5021779;28;20064;-93
2022/09/21 10:46:40;;;;;;;2.85;1.48;;;;;;;17.52;100.00;99222.19;5085308;28;20024;-91
2022/09/21 10:49:24;;;;;;;17.05;16.02;;;;;;;16.94;100.00;99235.25;5087732;28;20027;-93
2022/09/21 10:52:04;;;;;;;36.50;32.88;;;;;;;16.87;100.00;99216.09;5089863;28;20032;-95
2022/09/21 10:55:32;;;;;;;1999.90;999.90;;;;;;;16.68;100.00;99221.84;5077021;28;20028;-95
2022/09/21 10:58:00;;;;;;;1999.90;999.90;;;;;;;16.89;100.00;99238.03;5093592;28;20039;-95
2022/09/21 11:00:50;;;;;;;9.00;8.30;;;;;;;16.48;100.00;99227.66;5087651;28;20039;-95
2022/09/21 11:03:48;;;;;;;1999.90;999.90;;;;;;;16.60;100.00;99212.44;5085367;28;20016;-95
2022/09/21 11:06:40;;;;;;;1999.90;999.90;;;;;;;16.32;100.00;99231.56;5092586;28;20042;-96
2022/09/21 11:09:29;;;;;;;1999.90;999.90;;;;;;;16.40;100.00;99210.34;5072814;28;20085;-95
2022/09/21 11:12:30;;;;;;;20.35;19.15;;;;;;;16.73;100.00;99222.59;5088374;28;20020;-94
2022/09/21 11:15:29;;;;;;;7.20;6.50;;;;;;;17.31;100.00;99211.34;5092559;28;20530;-95
2022/09/21 11:18:19;;;;;;;21.05;19.85;;;;;;;17.27;100.00;99212.38;5069413;28;20037;-95
2022/09/21 11:20:58;;;;;;;7.20;6.50;;;;;;;16.46;100.00;99212.78;5093007;28;20031;-95
2022/09/21 11:23:39;;;;;;;19.60;18.48;;;;;;;16.71;100.00;99213.91;5074826;28;20024;-96
2022/09/21 11:26:53;;;;;;;7.07;6.38;;;;;;;16.77;100.00;99210.22;5078868;22;20053;-96
2022/09/21 11:29:39;;;;;;;;;;;;;;;17.75;100.00;99203.88;5007248;28;20142;-90
2022/09/21 11:32:07;;;;;;;14.50;13.55;;;;;;;17.44;100.00;99211.00;4949341;28;19929;-91
2022/09/21 11:35:14;;;;;;;31.33;27.35;;;;;;;17.15;100.00;99210.94;4960973;28;20593;-90
2022/09/21 11:38:00;;;;;;;8.45;7.75;;;;;;;16.93;100.00;99210.69;4948761;28;20060;-93
2022/09/21 11:40:48;;;;;;;196.25;73.78;;;;;;;17.00;100.00;99206.97;4946199;28;20034;-92
2022/09/21 11:43:35;;;;;;;7.53;3.00;;;;;;;17.36;100.00;99198.91;4916754;28;20146;-92
2022/09/21 11:46:47;;;;;;;6.20;2.40;;;;;;;17.04;100.00;99199.84;4963751;28;20046;-93
2022/09/21 11:49:35;;;;;;;5.85;2.05;;;;;;;17.05;100.00;99188.41;4907463;29;20069;-94
2022/09/21 11:55:31;;;;;;;7.70;3.25;;;;;;;17.20;100.00;99198.50;4878967;29;20127;-92
2022/09/21 11:58:14;;;;;;;6.25;2.50;;;;;;;17.67;100.00;99197.13;4891164;29;20176;-93
2022/09/21 12:01:22;;;;;;;7.03;2.50;;;;;;;17.39;100.00;99197.97;4876599;29;20074;-92
2022/09/21 12:04:12;;;;;;;6.55;2.30;;;;;;;16.87;100.00;99195.88;4873721;29;20049;-92
2022/09/21 12:07:22;;;;;;;8.10;2.53;;;;;;;17.19;100.00;99194.13;4875239;29;20040;-92
2022/09/21 12:10:17;;;;;;;1999.90;999.90;;;;;;;17.31;100.00;99192.03;4913671;29;20043;-94
2022/09/21 12:13:07;;;;;;;9.43;8.52;;;;;;;17.25;100.00;99182.56;4911601;29;20047;-92
2022/09/21 12:16:14;;;;;;;11.57;10.45;;;;;;;17.15;100.00;99192.50;4920760;29;20569;-93